sensor_id;sensor_type;location;lat;lon;timestamp;P1;durP1;ratioP1;P2;durP2;ratioP2
71856;SDS011;63344;46.980;28.882;2023-09-19T00:02:23;14.13;;;8.05;;
71856;SDS011;63344;46.980;28.882;2023-09-19T00:04:58;11.57;;;7.50;;
71856;SDS011;63344;46.980;28.882;2023-09-19T00:07:53;10.65;;;7.30;;
71856;SDS011;63344;46.980;28.882;2023-09-19T00:10:26;10.57;;;6.93;;
71856;SDS011;63344;46.980;28.882;2023-09-19T00:13:07;11.50;;;7.28;;
71856;SDS011;63344;46.980;28.882;2023-09-19T00:15:43;9.88;;;6.90;;
71856;SDS011;63344;46.980;28.882;2023-09-19T00:18:20;13.30;;;7.25;;
71856;SDS011;63344;46.980;28.882;2023-09-19T00:20:58;11.80;;;7.03;;
71856;SDS011;63344;46.980;28.882;2023-09-19T00:23:29;16.98;;;9.27;;
71856;SDS011;63344;46.980;28.882;2023-09-19T00:26:03;16.02;;;8.45;;
71856;SDS011;63344;46.980;28.882;2023-09-19T00:28:37;10.45;;;7.07;;
71856;SDS011;63344;46.980;28.882;2023-09-19T00:31:12;13.38;;;7.72;;
71856;SDS011;63344;46.980;28.882;2023-09-19T00:34:08;12.45;;;7.90;;
71856;SDS011;63344;46.980;28.882;2023-09-19T00:36:38;13.68;;;7.32;;
71856;SDS011;63344;46.980;28.882;2023-09-19T00:39:25;12.57;;;7.32;;
71856;SDS011;63344;46.980;28.882;2023-09-19T00:42:01;12.00;;;7.50;;
71856;SDS011;63344;46.980;28.882;2023-09-19T00:44:35;16.92;;;9.70;;
71856;SDS011;63344;46.980;28.882;2023-09-19T00:47:12;11.60;;;7.55;;
71856;SDS011;63344;46.980;28.882;2023-09-19T00:49:51;13.80;;;8.02;;
71856;SDS011;63344;46.980;28.882;2023-09-19T00:52:38;13.10;;;7.68;;
71856;SDS011;63344;46.980;28.882;2023-09-19T00:55:12;11.80;;;7.18;;
71856;SDS011;63344;46.980;28.882;2023-09-19T00:57:58;13.25;;;7.78;;
71856;SDS011;63344;46.980;28.882;2023-09-19T01:00:35;13.70;;;7.75;;
71856;SDS011;63344;46.980;28.882;2023-09-19T01:03:27;11.57;;;7.25;;
71856;SDS011;63344;46.980;28.882;2023-09-19T01:05:59;13.13;;;8.13;;
71856;SDS011;63344;46.980;28.882;2023-09-19T01:08:43;14.15;;;8.75;;
71856;SDS011;63344;46.980;28.882;2023-09-19T01:11:25;14.82;;;9.48;;
71856;SDS011;63344;46.980;28.882;2023-09-19T01:17:05;12.48;;;7.85;;
71856;SDS011;63344;46.980;28.882;2023-09-19T01:28:29;12.23;;;7.88;;
71856;SDS011;63344;46.980;28.882;2023-09-19T01:31:14;11.98;;;7.65;;
71856;SDS011;63344;46.980;28.882;2023-09-19T01:36:38;14.30;;;8.18;;
71856;SDS011;63344;46.980;28.882;2023-09-19T01:39:12;12.45;;;7.22;;
71856;SDS011;63344;46.980;28.882;2023-09-19T01:42:01;14.55;;;8.00;;
71856;SDS011;63344;46.980;28.882;2023-09-19T01:44:51;16.52;;;8.60;;
71856;SDS011;63344;46.980;28.882;2023-09-19T01:47:38;18.92;;;8.98;;
71856;SDS011;63344;46.980;28.882;2023-09-19T01:50:44;17.15;;;10.63;;
71856;SDS011;63344;46.980;28.882;2023-09-19T01:53:25;13.93;;;9.50;;
71856;SDS011;63344;46.980;28.882;2023-09-19T01:57:48;14.23;;;8.55;;
71856;SDS011;63344;46.980;28.882;2023-09-19T02:00:18;15.10;;;8.82;;
71856;SDS011;63344;46.980;28.882;2023-09-19T02:02:54;15.13;;;8.77;;
71856;SDS011;63344;46.980;28.882;2023-09-19T02:05:34;17.77;;;9.52;;
71856;SDS011;63344;46.980;28.882;2023-09-19T02:08:05;15.75;;;9.07;;
71856;SDS011;63344;46.980;28.882;2023-09-19T02:10:38;16.55;;;8.80;;
71856;SDS011;63344;46.980;28.882;2023-09-19T02:13:22;14.30;;;8.48;;
71856;SDS011;63344;46.980;28.882;2023-09-19T02:16:13;16.17;;;9.00;;
71856;SDS011;63344;46.980;28.882;2023-09-19T02:19:02;16.65;;;8.70;;
71856;SDS011;63344;46.980;28.882;2023-09-19T02:21:52;20.00;;;8.43;;
71856;SDS011;63344;46.980;28.882;2023-09-19T02:24:33;13.15;;;8.20;;
71856;SDS011;63344;46.980;28.882;2023-09-19T02:27:15;19.92;;;9.70;;
71856;SDS011;63344;46.980;28.882;2023-09-19T02:29:53;14.32;;;7.32;;
71856;SDS011;63344;46.980;28.882;2023-09-19T02:32:37;13.27;;;7.43;;
71856;SDS011;63344;46.980;28.882;2023-09-19T02:35:20;13.15;;;7.90;;
71856;SDS011;63344;46.980;28.882;2023-09-19T02:38:20;15.30;;;9.35;;
71856;SDS011;63344;46.980;28.882;2023-09-19T02:40:52;23.70;;;11.52;;
71856;SDS011;63344;46.980;28.882;2023-09-19T02:43:51;16.65;;;9.52;;
71856;SDS011;63344;46.980;28.882;2023-09-19T02:49:19;16.42;;;9.93;;
71856;SDS011;63344;46.980;28.882;2023-09-19T02:52:03;17.88;;;9.70;;
71856;SDS011;63344;46.980;28.882;2023-09-19T02:54:35;16.13;;;9.70;;
71856;SDS011;63344;46.980;28.882;2023-09-19T02:57:15;16.77;;;10.15;;
71856;SDS011;63344;46.980;28.882;2023-09-19T02:59:50;18.80;;;10.57;;
71856;SDS011;63344;46.980;28.882;2023-09-19T03:02:24;17.13;;;10.30;;
71856;SDS011;63344;46.980;28.882;2023-09-19T03:04:57;19.30;;;10.85;;
71856;SDS011;63344;46.980;28.882;2023-09-19T03:07:33;18.95;;;9.57;;
71856;SDS011;63344;46.980;28.882;2023-09-19T03:10:01;15.35;;;9.50;;
71856;SDS011;63344;46.980;28.882;2023-09-19T03:12:41;17.80;;;10.63;;
71856;SDS011;63344;46.980;28.882;2023-09-19T03:15:11;15.38;;;9.65;;
71856;SDS011;63344;46.980;28.882;2023-09-19T03:17:52;17.60;;;9.93;;
71856;SDS011;63344;46.980;28.882;2023-09-19T03:20:42;21.95;;;9.65;;
71856;SDS011;63344;46.980;28.882;2023-09-19T03:23:13;17.88;;;9.13;;
71856;SDS011;63344;46.980;28.882;2023-09-19T03:25:58;19.60;;;11.13;;
71856;SDS011;63344;46.980;28.882;2023-09-19T03:28:32;18.52;;;9.70;;
71856;SDS011;63344;46.980;28.882;2023-09-19T03:31:03;17.67;;;10.13;;
71856;SDS011;63344;46.980;28.882;2023-09-19T03:33:34;17.85;;;10.15;;
71856;SDS011;63344;46.980;28.882;2023-09-19T03:36:11;20.38;;;9.85;;
71856;SDS011;63344;46.980;28.882;2023-09-19T03:38:43;18.77;;;10.25;;
71856;SDS011;63344;46.980;28.882;2023-09-19T03:41:23;16.85;;;10.07;;
71856;SDS011;63344;46.980;28.882;2023-09-19T03:44:18;19.60;;;10.98;;
71856;SDS011;63344;46.980;28.882;2023-09-19T03:46:52;17.95;;;9.23;;
71856;SDS011;63344;46.980;28.882;2023-09-19T03:49:29;16.40;;;9.48;;
71856;SDS011;63344;46.980;28.882;2023-09-19T03:52:03;15.90;;;9.45;;
71856;SDS011;63344;46.980;28.882;2023-09-19T03:54:38;16.77;;;9.27;;
71856;SDS011;63344;46.980;28.882;2023-09-19T03:57:23;17.85;;;9.75;;
71856;SDS011;63344;46.980;28.882;2023-09-19T04:00:14;17.58;;;9.48;;
71856;SDS011;63344;46.980;28.882;2023-09-19T04:02:52;14.75;;;9.32;;
71856;SDS011;63344;46.980;28.882;2023-09-19T04:12:40;19.08;;;9.75;;
71856;SDS011;63344;46.980;28.882;2023-09-19T04:15:31;17.77;;;9.45;;
71856;SDS011;63344;46.980;28.882;2023-09-19T04:18:28;16.35;;;9.02;;
71856;SDS011;63344;46.980;28.882;2023-09-19T04:24:39;13.30;;;8.98;;
71856;SDS011;63344;46.980;28.882;2023-09-19T04:31:12;13.65;;;7.90;;
71856;SDS011;63344;46.980;28.882;2023-09-19T04:33:58;13.00;;;7.93;;
71856;SDS011;63344;46.980;28.882;2023-09-19T04:40:20;12.90;;;8.35;;
71856;SDS011;63344;46.980;28.882;2023-09-19T04:42:57;18.42;;;9.55;;
71856;SDS011;63344;46.980;28.882;2023-09-19T04:45:49;21.63;;;10.18;;
71856;SDS011;63344;46.980;28.882;2023-09-19T04:48:36;15.95;;;8.85;;
71856;SDS011;63344;46.980;28.882;2023-09-19T04:51:43;19.17;;;9.13;;
71856;SDS011;63344;46.980;28.882;2023-09-19T04:54:21;13.77;;;9.15;;
71856;SDS011;63344;46.980;28.882;2023-09-19T04:57:24;17.13;;;9.02;;
71856;SDS011;63344;46.980;28.882;2023-09-19T05:03:35;22.40;;;9.18;;
71856;SDS011;63344;46.980;28.882;2023-09-19T05:06:16;17.80;;;8.98;;
71856;SDS011;63344;46.980;28.882;2023-09-19T05:09:15;16.48;;;9.95;;
71856;SDS011;63344;46.980;28.882;2023-09-19T05:12:02;13.48;;;8.60;;
71856;SDS011;63344;46.980;28.882;2023-09-19T05:26:02;19.15;;;8.50;;
71856;SDS011;63344;46.980;28.882;2023-09-19T05:28:50;15.25;;;8.73;;
71856;SDS011;63344;46.980;28.882;2023-09-19T05:34:34;19.30;;;8.85;;
71856;SDS011;63344;46.980;28.882;2023-09-19T05:40:47;14.98;;;8.00;;
71856;SDS011;63344;46.980;28.882;2023-09-19T05:44:03;14.02;;;8.45;;
71856;SDS011;63344;46.980;28.882;2023-09-19T05:46:59;16.73;;;8.23;;
71856;SDS011;63344;46.980;28.882;2023-09-19T05:50:01;12.90;;;8.07;;
71856;SDS011;63344;46.980;28.882;2023-09-19T05:53:08;13.30;;;7.97;;
71856;SDS011;63344;46.980;28.882;2023-09-19T06:03:35;13.52;;;5.88;;
71856;SDS011;63344;46.980;28.882;2023-09-19T06:16:20;8.90;;;4.88;;
71856;SDS011;63344;46.980;28.882;2023-09-19T06:19:22;8.18;;;5.70;;
71856;SDS011;63344;46.980;28.882;2023-09-19T06:22:10;9.25;;;5.18;;
71856;SDS011;63344;46.980;28.882;2023-09-19T06:28:38;7.63;;;4.68;;
71856;SDS011;63344;46.980;28.882;2023-09-19T06:31:33;8.77;;;4.60;;
71856;SDS011;63344;46.980;28.882;2023-09-19T06:34:22;11.98;;;5.28;;
71856;SDS011;63344;46.980;28.882;2023-09-19T06:36:56;9.73;;;4.45;;
71856;SDS011;63344;46.980;28.882;2023-09-19T06:50:51;7.03;;;4.22;;
71856;SDS011;63344;46.980;28.882;2023-09-19T07:00:18;7.72;;;3.90;;
71856;SDS011;63344;46.980;28.882;2023-09-19T07:18:10;9.38;;;4.25;;
71856;SDS011;63344;46.980;28.882;2023-09-19T07:21:01;10.45;;;3.70;;
71856;SDS011;63344;46.980;28.882;2023-09-19T07:24:17;8.57;;;4.10;;
71856;SDS011;63344;46.980;28.882;2023-09-19T07:26:53;8.73;;;4.22;;
71856;SDS011;63344;46.980;28.882;2023-09-19T07:33:03;7.05;;;3.75;;
71856;SDS011;63344;46.980;28.882;2023-09-19T07:35:46;8.02;;;3.60;;
71856;SDS011;63344;46.980;28.882;2023-09-19T07:48:51;6.72;;;3.40;;
71856;SDS011;63344;46.980;28.882;2023-09-19T07:55:10;8.63;;;3.60;;
71856;SDS011;63344;46.980;28.882;2023-09-19T07:57:54;5.10;;;3.75;;
71856;SDS011;63344;46.980;28.882;2023-09-19T08:05:05;7.35;;;3.75;;
71856;SDS011;63344;46.980;28.882;2023-09-19T08:12:33;3.95;;;2.70;;
71856;SDS011;63344;46.980;28.882;2023-09-19T08:27:00;5.47;;;3.20;;
71856;SDS011;63344;46.980;28.882;2023-09-19T08:44:20;5.95;;;2.70;;
71856;SDS011;63344;46.980;28.882;2023-09-19T08:54:35;6.13;;;2.80;;
71856;SDS011;63344;46.980;28.882;2023-09-19T09:11:42;6.93;;;3.08;;
71856;SDS011;63344;46.980;28.882;2023-09-19T09:31:32;6.35;;;2.90;;
71856;SDS011;63344;46.980;28.882;2023-09-19T10:05:17;8.25;;;2.63;;
71856;SDS011;63344;46.980;28.882;2023-09-19T11:07:59;5.78;;;2.60;;
71856;SDS011;63344;46.980;28.882;2023-09-19T11:39:27;5.32;;;2.10;;
71856;SDS011;63344;46.980;28.882;2023-09-19T11:43:41;3.80;;;2.30;;
71856;SDS011;63344;46.980;28.882;2023-09-19T11:50:44;2.65;;;2.15;;
71856;SDS011;63344;46.980;28.882;2023-09-19T11:54:10;3.38;;;2.33;;
71856;SDS011;63344;46.980;28.882;2023-09-19T13:28:37;4.85;;;2.47;;
71856;SDS011;63344;46.980;28.882;2023-09-19T14:15:40;4.68;;;2.03;;
71856;SDS011;63344;46.980;28.882;2023-09-19T14:25:17;4.32;;;2.50;;
71856;SDS011;63344;46.980;28.882;2023-09-19T14:32:15;5.25;;;2.38;;
71856;SDS011;63344;46.980;28.882;2023-09-19T14:39:25;2.92;;;2.30;;
71856;SDS011;63344;46.980;28.882;2023-09-19T15:16:32;5.43;;;2.38;;
71856;SDS011;63344;46.980;28.882;2023-09-19T15:19:40;4.15;;;2.42;;
71856;SDS011;63344;46.980;28.882;2023-09-19T15:29:38;3.92;;;2.17;;
71856;SDS011;63344;46.980;28.882;2023-09-19T15:44:49;3.92;;;2.22;;
71856;SDS011;63344;46.980;28.882;2023-09-19T15:48:03;5.40;;;2.78;;
71856;SDS011;63344;46.980;28.882;2023-09-19T16:15:54;6.40;;;2.60;;
71856;SDS011;63344;46.980;28.882;2023-09-19T16:32:46;7.70;;;2.90;;
71856;SDS011;63344;46.980;28.882;2023-09-19T16:35:55;7.63;;;3.17;;
71856;SDS011;63344;46.980;28.882;2023-09-19T16:39:00;13.00;;;3.85;;
71856;SDS011;63344;46.980;28.882;2023-09-19T16:54:03;5.97;;;2.67;;
71856;SDS011;63344;46.980;28.882;2023-09-19T17:00:26;8.85;;;3.30;;
71856;SDS011;63344;46.980;28.882;2023-09-19T17:03:22;5.47;;;3.13;;
71856;SDS011;63344;46.980;28.882;2023-09-19T17:10:03;8.07;;;3.10;;
71856;SDS011;63344;46.980;28.882;2023-09-19T17:25:06;7.00;;;3.05;;
71856;SDS011;63344;46.980;28.882;2023-09-19T17:28:41;5.22;;;3.00;;
71856;SDS011;63344;46.980;28.882;2023-09-19T17:40:19;8.80;;;3.15;;
71856;SDS011;63344;46.980;28.882;2023-09-19T17:43:51;4.65;;;2.70;;
71856;SDS011;63344;46.980;28.882;2023-09-19T18:03:40;4.68;;;3.05;;
71856;SDS011;63344;46.980;28.882;2023-09-19T18:06:27;4.95;;;3.05;;
71856;SDS011;63344;46.980;28.882;2023-09-19T18:09:00;5.95;;;3.22;;
71856;SDS011;63344;46.980;28.882;2023-09-19T19:15:08;6.07;;;3.15;;
71856;SDS011;63344;46.980;28.882;2023-09-19T19:22:17;8.93;;;3.20;;
71856;SDS011;63344;46.980;28.882;2023-09-19T19:29:29;5.55;;;3.42;;
71856;SDS011;63344;46.980;28.882;2023-09-19T19:36:48;6.97;;;3.22;;
71856;SDS011;63344;46.980;28.882;2023-09-19T19:44:07;7.35;;;3.50;;
71856;SDS011;63344;46.980;28.882;2023-09-19T19:47:15;6.05;;;3.38;;
71856;SDS011;63344;46.980;28.882;2023-09-19T19:51:37;6.75;;;3.47;;
71856;SDS011;63344;46.980;28.882;2023-09-19T20:10:29;6.75;;;3.42;;
71856;SDS011;63344;46.980;28.882;2023-09-19T20:16:38;6.70;;;3.08;;
71856;SDS011;63344;46.980;28.882;2023-09-19T20:22:50;6.78;;;3.47;;
71856;SDS011;63344;46.980;28.882;2023-09-19T20:25:52;6.00;;;3.25;;
71856;SDS011;63344;46.980;28.882;2023-09-19T20:33:13;5.95;;;3.13;;
71856;SDS011;63344;46.980;28.882;2023-09-19T20:43:27;6.03;;;3.58;;
71856;SDS011;63344;46.980;28.882;2023-09-19T20:46:27;5.28;;;3.58;;
71856;SDS011;63344;46.980;28.882;2023-09-19T20:49:38;8.63;;;3.55;;
71856;SDS011;63344;46.980;28.882;2023-09-19T20:52:28;7.43;;;3.80;;
71856;SDS011;63344;46.980;28.882;2023-09-19T20:58:38;6.40;;;3.35;;
71856;SDS011;63344;46.980;28.882;2023-09-19T21:01:46;7.55;;;3.65;;
71856;SDS011;63344;46.980;28.882;2023-09-19T21:04:16;4.88;;;3.35;;
71856;SDS011;63344;46.980;28.882;2023-09-19T21:07:00;6.35;;;3.50;;
71856;SDS011;63344;46.980;28.882;2023-09-19T21:09:52;6.40;;;3.70;;
71856;SDS011;63344;46.980;28.882;2023-09-19T21:12:32;6.40;;;3.60;;
71856;SDS011;63344;46.980;28.882;2023-09-19T21:15:06;4.60;;;3.80;;
71856;SDS011;63344;46.980;28.882;2023-09-19T21:17:43;6.38;;;3.30;;
71856;SDS011;63344;46.980;28.882;2023-09-19T21:20:15;4.80;;;3.13;;
71856;SDS011;63344;46.980;28.882;2023-09-19T21:22:58;7.00;;;3.50;;
71856;SDS011;63344;46.980;28.882;2023-09-19T21:25:56;10.52;;;4.00;;
71856;SDS011;63344;46.980;28.882;2023-09-19T21:28:35;7.78;;;3.22;;
71856;SDS011;63344;46.980;28.882;2023-09-19T21:34:42;4.88;;;3.65;;
71856;SDS011;63344;46.980;28.882;2023-09-19T21:40:55;4.63;;;3.80;;
71856;SDS011;63344;46.980;28.882;2023-09-19T21:51:19;8.32;;;3.85;;
71856;SDS011;63344;46.980;28.882;2023-09-19T21:54:10;5.60;;;3.78;;
71856;SDS011;63344;46.980;28.882;2023-09-19T22:00:29;6.78;;;3.70;;
71856;SDS011;63344;46.980;28.882;2023-09-19T22:03:35;5.05;;;3.85;;
71856;SDS011;63344;46.980;28.882;2023-09-19T22:06:17;5.95;;;3.92;;
71856;SDS011;63344;46.980;28.882;2023-09-19T22:12:19;4.35;;;3.55;;
71856;SDS011;63344;46.980;28.882;2023-09-19T22:14:59;5.75;;;3.55;;
71856;SDS011;63344;46.980;28.882;2023-09-19T22:17:49;7.72;;;3.63;;
71856;SDS011;63344;46.980;28.882;2023-09-19T22:20:31;6.93;;;3.80;;
71856;SDS011;63344;46.980;28.882;2023-09-19T22:23:13;5.05;;;3.67;;
71856;SDS011;63344;46.980;28.882;2023-09-19T22:25:47;4.95;;;3.28;;
71856;SDS011;63344;46.980;28.882;2023-09-19T22:28:25;5.35;;;3.20;;
71856;SDS011;63344;46.980;28.882;2023-09-19T22:31:14;5.32;;;3.30;;
71856;SDS011;63344;46.980;28.882;2023-09-19T22:33:56;5.68;;;3.28;;
71856;SDS011;63344;46.980;28.882;2023-09-19T22:36:36;4.90;;;3.55;;
71856;SDS011;63344;46.980;28.882;2023-09-19T22:42:21;4.80;;;3.70;;
71856;SDS011;63344;46.980;28.882;2023-09-19T22:45:06;6.60;;;3.63;;
71856;SDS011;63344;46.980;28.882;2023-09-19T22:48:04;5.53;;;3.80;;
71856;SDS011;63344;46.980;28.882;2023-09-19T22:50:44;6.20;;;3.60;;
71856;SDS011;63344;46.980;28.882;2023-09-19T22:53:32;6.18;;;3.70;;
71856;SDS011;63344;46.980;28.882;2023-09-19T22:56:12;5.78;;;4.00;;
71856;SDS011;63344;46.980;28.882;2023-09-19T22:58:52;5.05;;;4.15;;
71856;SDS011;63344;46.980;28.882;2023-09-19T23:01:57;6.32;;;3.65;;
71856;SDS011;63344;46.980;28.882;2023-09-19T23:04:36;5.75;;;3.83;;
71856;SDS011;63344;46.980;28.882;2023-09-19T23:07:27;4.57;;;3.55;;
71856;SDS011;63344;46.980;28.882;2023-09-19T23:10:09;6.25;;;4.00;;
71856;SDS011;63344;46.980;28.882;2023-09-19T23:12:53;5.25;;;4.00;;
71856;SDS011;63344;46.980;28.882;2023-09-19T23:15:39;4.15;;;3.35;;
71856;SDS011;63344;46.980;28.882;2023-09-19T23:18:14;5.20;;;3.80;;
71856;SDS011;63344;46.980;28.882;2023-09-19T23:20:49;5.75;;;3.60;;
71856;SDS011;63344;46.980;28.882;2023-09-19T23:23:45;4.90;;;3.20;;
71856;SDS011;63344;46.980;28.882;2023-09-19T23:26:28;6.68;;;3.72;;
71856;SDS011;63344;46.980;28.882;2023-09-19T23:29:19;5.93;;;3.88;;
71856;SDS011;63344;46.980;28.882;2023-09-19T23:31:55;5.90;;;3.97;;
71856;SDS011;63344;46.980;28.882;2023-09-19T23:34:48;6.32;;;3.80;;
71856;SDS011;63344;46.980;28.882;2023-09-19T23:37:26;6.80;;;3.97;;
71856;SDS011;63344;46.980;28.882;2023-09-19T23:40:10;8.07;;;4.35;;
71856;SDS011;63344;46.980;28.882;2023-09-19T23:42:56;4.93;;;3.78;;
71856;SDS011;63344;46.980;28.882;2023-09-19T23:45:27;8.50;;;4.10;;
71856;SDS011;63344;46.980;28.882;2023-09-19T23:48:21;6.75;;;4.00;;
71856;SDS011;63344;46.980;28.882;2023-09-19T23:51:06;7.22;;;4.38;;
71856;SDS011;63344;46.980;28.882;2023-09-19T23:53:43;8.52;;;4.53;;
71856;SDS011;63344;46.980;28.882;2023-09-19T23:56:19;5.60;;;4.07;;
71856;SDS011;63344;46.980;28.882;2023-09-19T23:58:51;5.65;;;4.10;;
